Aérodrome :
LOGIN :

S'inscrire | Disclaimer

   EN    FR    IT 

 










Légende :    VFR   VFR Marginal   IFR   IFR Intensif   IFR Très Intensif
Visi : 
Plafond : 
>= 8 km
>= 3000ft
5 à 8 km
1000 à 3000 ft
1500m à 5 km
500 à 1000 ft
800 à 1500m
200 à 500 ft
< 800m
< 200 ft
Symboles :   Orages  Brouillard  Fortes neiges  Fortes précipitations  Vent > 20 kt
SIGMETs :   Divers  Orages  Givrage  Turbulence  Onde Orograph.  Cendres Volcan.







- Altitude de l'aérodrome : 464 ft
- Code IATA : EVX
- Voir les cartes d'approche


LFOE - Evreux

DERNIER METAR :
  • 180300Z AUTO VRB02KT 1900 BCFG VV/// 11/11 Q1012

METARs EXPIRÉS :
  • 180230Z AUTO 09003KT 0300 0100 R22/0600D FG VV/// 11/11 Q1013
  • 180200Z AUTO VRB02KT 0300 0150 R22/0550U FG VV/// 11/10 Q1013
  • 180130Z AUTO 18002KT 0250 0200 R22/0400N FG VV/// 11/10 Q1013
  • 180100Z AUTO 17002KT 0450 0350 R22/0650N FG VV/// 10/10 Q1013
  • 180030Z AUTO 13002KT 0250 R22/0300N FG VV/// 10/09 Q1013

TAF TAF LFOE
Valide du 18 à 03h jusqu'au 19 à 03h UTC


180200Z 1803/1903 VRB02KT 1500 BR BKN002
TEMPO 1803/1807 0250 BCFG VV///
BECMG 1807/1809 19006KT 9999 NSW SCT008
BECMG 1812/1814 11010KT SCT025
Pas de NOTAMs connus pour ce terrain.



MET'MAP, la Météo Aéronautique d'un coup d'oeil ! - Copyright ORBIFLY Décembre 2007 - Disclaimer

ORBIFLY MET'MAP TEAM :

Programmation & Développement : Alexandra Zaïnal
Conception & Développement : Baudouin d'Aumeries
Co-Programmation & Développement : Marc-Olivier Méhu
Soutien technique & logistique : Manuel Goepfert

Contact : metmap@orbifly.com




SOURCES & CREDITS :

   NOAA